createdAt,value
2017-10-05T00:00:17.763Z,1008.8
2017-10-05T00:05:23.158Z,1008.8
2017-10-05T00:10:27.881Z,1008.9
2017-10-05T00:15:33.603Z,1008.8
2017-10-05T00:20:38.656Z,1008.7
2017-10-05T00:25:44.050Z,1008.7
2017-10-05T00:30:48.768Z,1008.6
2017-10-05T00:35:54.492Z,1008.4
2017-10-05T00:40:59.214Z,1008.4
2017-10-05T00:46:04.268Z,1008.4
2017-10-05T00:51:09.325Z,1008.2
2017-10-05T00:56:14.045Z,1008.2
2017-10-05T01:01:19.438Z,1008.1
2017-10-05T01:06:24.161Z,1008
2017-10-05T01:11:29.217Z,1007.8
2017-10-05T01:16:34.609Z,1007.7
2017-10-05T01:21:39.004Z,1007.6
2017-10-05T01:26:44.734Z,1007.5
2017-10-05T01:31:50.380Z,1007.5
2017-10-05T01:36:55.767Z,1007.3
2017-10-05T01:42:01.159Z,1007.3
2017-10-05T01:47:06.549Z,1007.2
2017-10-05T01:52:11.607Z,1007.1
2017-10-05T01:57:17.671Z,1006.9
2017-10-05T02:02:23.400Z,1006.7
2017-10-05T02:07:28.123Z,1006.8
2017-10-05T02:12:33.513Z,1006.7
2017-10-05T02:17:39.575Z,1006.7
2017-10-05T02:22:44.298Z,1006.5
2017-10-05T02:27:48.689Z,1006.4
2017-10-05T02:32:53.745Z,1006.3
2017-10-05T02:37:59.138Z,1006.1
2017-10-05T02:43:04.532Z,1006.1
2017-10-05T02:48:08.922Z,1006
2017-10-05T02:53:13.652Z,1006
2017-10-05T02:58:19.045Z,1005.8
2017-10-05T03:03:24.103Z,1005.8
2017-10-05T03:08:29.493Z,1005.6
2017-10-05T03:13:34.552Z,1005.5
2017-10-05T03:18:38.607Z,1005.4
2017-10-05T03:23:43.335Z,1005.3
2017-10-05T03:28:48.100Z,1005.1
2017-10-05T03:33:53.158Z,1004.8
2017-10-05T03:38:58.554Z,1004.7
2017-10-05T03:44:04.281Z,1004.6
2017-10-05T03:49:09.340Z,1004.5
2017-10-05T03:54:15.067Z,1004.5
2017-10-05T03:59:20.126Z,1004.4
2017-10-05T04:04:25.856Z,1004.4
2017-10-05T04:09:31.140Z,1004.2
2017-10-05T04:14:36.528Z,1004.1
2017-10-05T04:19:41.919Z,1004
2017-10-05T04:24:47.041Z,1004
2017-10-05T04:29:52.773Z,1003.7
2017-10-05T04:34:58.169Z,1003.5
2017-10-05T04:40:03.230Z,1003.4
2017-10-05T04:45:08.955Z,1003.2
2017-10-05T04:50:14.223Z,1003.1
2017-10-05T04:55:19.457Z,1003
2017-10-05T05:00:24.520Z,1002.9
2017-10-05T05:05:29.603Z,1002.6
2017-10-05T05:10:33.996Z,1002.5
2017-10-05T05:15:39.387Z,1002.3
2017-10-05T05:20:44.443Z,1002.3
2017-10-05T05:25:50.174Z,1002.2
2017-10-05T05:30:55.586Z,1002.1
2017-10-05T05:36:00.980Z,1001.9
2017-10-05T05:41:06.041Z,1001.8
2017-10-05T05:46:11.438Z,1001.5
2017-10-05T05:51:17.168Z,1001.4
2017-10-05T05:56:21.553Z,1001.2
2017-10-05T06:01:27.290Z,1001
2017-10-05T06:06:33.020Z,1000.8
2017-10-05T06:11:37.412Z,1000.6
2017-10-05T06:16:43.484Z,1000.3
2017-10-05T06:21:48.211Z,1000.1
2017-10-05T06:26:53.940Z,1000
2017-10-05T06:31:59.666Z,999.9
2017-10-05T06:37:05.396Z,999.6
2017-10-05T06:42:10.458Z,999.4
2017-10-05T06:47:15.517Z,999.3
2017-10-05T06:52:20.909Z,999
2017-10-05T06:57:25.973Z,998.9
2017-10-05T07:02:30.701Z,998.7
2017-10-05T07:07:35.430Z,998.5
2017-10-05T07:12:40.489Z,998.3
2017-10-05T07:17:46.223Z,998
2017-10-05T07:22:51.616Z,997.7
2017-10-05T07:27:56.338Z,997.4
2017-10-05T07:33:01.738Z,997.2
2017-10-05T07:38:06.802Z,997
2017-10-05T07:43:12.198Z,996.8
2017-10-05T07:48:17.595Z,996.7
2017-10-05T07:53:22.653Z,996.5
2017-10-05T07:58:28.052Z,996.1
2017-10-05T08:03:33.448Z,995.9
2017-10-05T08:08:38.505Z,995.6
2017-10-05T08:13:43.569Z,995.4
2017-10-05T08:18:48.959Z,995.2
2017-10-05T08:23:54.354Z,994.9
2017-10-05T08:28:59.754Z,994.7
2017-10-05T08:34:05.146Z,994.5
2017-10-05T08:39:11.211Z,994.3
2017-10-05T08:44:16.605Z,994
2017-10-05T08:49:21.998Z,993.8
2017-10-05T08:54:27.392Z,993.6
2017-10-05T08:59:32.447Z,993.4
2017-10-05T09:04:37.840Z,993.2
2017-10-05T09:09:43.234Z,993
2017-10-05T09:14:48.628Z,992.8
2017-10-05T09:19:54.024Z,992.7
2017-10-05T09:24:59.418Z,992.4
2017-10-05T09:30:05.485Z,992.2
2017-10-05T09:35:10.551Z,992
2017-10-05T09:40:15.943Z,991.8
2017-10-05T09:45:20.668Z,991.5
2017-10-05T09:50:26.066Z,991.5
2017-10-05T09:55:31.137Z,991.2
2017-10-05T10:00:37.205Z,991
2017-10-05T10:05:42.603Z,990.9
2017-10-05T10:10:48.001Z,990.8
2017-10-05T10:15:53.732Z,990.8
2017-10-05T10:20:59.132Z,990.5
2017-10-05T10:26:04.860Z,990.3
2017-10-05T10:31:09.919Z,990.1
2017-10-05T10:36:15.317Z,989.9
2017-10-05T10:41:20.374Z,989.8
2017-10-05T10:46:25.103Z,989.6
2017-10-05T10:51:30.165Z,989.5
2017-10-05T10:56:35.558Z,989.4
2017-10-05T11:01:40.286Z,989.4
2017-10-05T11:06:45.684Z,989.8
2017-10-05T11:11:51.079Z,990.2
2017-10-05T11:16:57.149Z,990.9
2017-10-05T11:22:02.210Z,991.8
2017-10-05T11:27:07.937Z,992.8
2017-10-05T11:32:13.331Z,993.6
2017-10-05T11:37:18.390Z,994.5
2017-10-05T11:42:23.452Z,995.3
2017-10-05T11:47:28.180Z,996
2017-10-05T11:52:33.572Z,996.8
2017-10-05T11:58:22.399Z,997.3
2017-10-05T12:03:27.129Z,998
2017-10-05T12:08:32.194Z,998.3
2017-10-05T12:13:37.924Z,998.7
2017-10-05T12:18:42.650Z,999.3
2017-10-05T12:23:47.716Z,999.7
2017-10-05T12:28:53.121Z,1000.1
2017-10-05T12:33:57.845Z,1000.3
2017-10-05T12:39:03.242Z,1000.7
2017-10-05T12:44:07.971Z,1000.9
2017-10-05T12:49:13.035Z,1001.3
2017-10-05T12:54:17.759Z,1001.5
2017-10-05T12:59:22.823Z,1001.7
2017-10-05T13:04:28.223Z,1001.9
2017-10-05T13:09:33.773Z,1002.1
2017-10-05T13:14:38.838Z,1002.1
2017-10-05T13:19:44.905Z,1002.3
2017-10-05T13:24:49.968Z,1002.5
2017-10-05T13:29:55.702Z,1002.6
2017-10-05T13:35:01.098Z,1002.7
2017-10-05T13:40:06.503Z,1002.8
2017-10-05T13:45:12.235Z,1002.9
2017-10-05T13:50:17.634Z,1003
2017-10-05T13:55:22.694Z,1003.2
2017-10-05T14:00:28.429Z,1003.2
2017-10-05T14:05:33.821Z,1003.3
2017-10-05T14:10:38.882Z,1003.3
2017-10-05T14:15:43.610Z,1003.3
2017-10-05T14:20:48.004Z,1003.4
2017-10-05T14:25:53.063Z,1003.5
2017-10-05T14:30:57.803Z,1003.7
2017-10-05T14:36:02.853Z,1003.7
2017-10-05T14:41:07.913Z,1003.8
2017-10-05T14:46:12.637Z,1003.9
2017-10-05T14:51:17.380Z,1003.9
2017-10-05T14:56:22.109Z,1004.1
2017-10-05T15:01:26.834Z,1004.2
2017-10-05T15:06:32.247Z,1004.3
2017-10-05T15:11:36.665Z,1004.5
2017-10-05T15:16:42.061Z,1004.5
2017-10-05T15:21:47.134Z,1004.4
2017-10-05T15:26:51.899Z,1004.7
2017-10-05T15:31:57.658Z,1004.7
2017-10-05T15:37:02.047Z,1004.7
2017-10-05T15:42:07.110Z,1004.9
2017-10-05T15:47:12.173Z,1004.9
2017-10-05T15:52:17.235Z,1005
2017-10-05T15:57:22.293Z,1005.1
2017-10-05T16:02:27.705Z,1005.3
2017-10-05T16:07:32.435Z,1005.4
2017-10-05T16:12:38.196Z,1005.3
2017-10-05T16:17:43.585Z,1005.3
2017-10-05T16:22:49.219Z,1005.5
2017-10-05T16:27:55.029Z,1005.5
2017-10-05T16:33:00.105Z,1005.6
2017-10-05T16:38:04.503Z,1005.6
2017-10-05T16:43:10.249Z,1005.7
2017-10-05T16:48:15.329Z,1005.8
2017-10-05T16:53:20.739Z,1005.9
2017-10-05T16:58:25.819Z,1005.9
2017-10-05T17:03:30.556Z,1006
2017-10-05T17:08:35.671Z,1006.2
2017-10-05T17:13:40.730Z,1006.3
2017-10-05T17:18:46.162Z,1006.3
2017-10-05T17:23:50.575Z,1006.4
2017-10-05T17:28:55.656Z,1006.5
2017-10-05T17:34:00.082Z,1006.6
2017-10-05T17:39:05.833Z,1006.7
2017-10-05T17:44:11.584Z,1006.6
2017-10-05T17:49:17.337Z,1006.7
2017-10-05T17:54:22.762Z,1006.7
2017-10-05T17:59:27.859Z,1006.7
2017-10-05T18:04:32.604Z,1007.1
2017-10-05T18:09:37.360Z,1006.8
2017-10-05T18:14:43.478Z,1006.8
2017-10-05T18:19:48.589Z,1006.9
2017-10-05T18:24:53.126Z,1006.9
2017-10-05T18:29:58.858Z,1006.9
2017-10-05T18:35:04.594Z,1007
2017-10-05T18:40:09.669Z,1007.2
2017-10-05T18:45:15.741Z,1007.2
2017-10-05T18:50:21.139Z,1007.2
2017-10-05T18:55:25.556Z,1007.1
2017-10-05T19:00:30.957Z,1007.1
2017-10-05T19:05:36.039Z,1007.1
2017-10-05T19:10:40.792Z,1007.2
2017-10-05T19:15:45.870Z,1007.1
2017-10-05T19:20:51.283Z,1007.1
2017-10-05T19:25:56.688Z,1007.2
2017-10-05T19:31:02.099Z,1007.2
2017-10-05T19:36:07.503Z,1007.2
2017-10-05T19:41:12.241Z,1007.3
2017-10-05T19:46:17.654Z,1007.3
2017-10-05T19:51:22.442Z,1007.3
2017-10-05T19:56:27.182Z,1007.3
2017-10-05T20:01:31.916Z,1007.4
2017-10-05T20:06:37.011Z,1007.3
2017-10-05T20:11:42.071Z,1007.6
2017-10-05T20:16:47.478Z,1007.5
2017-10-05T20:21:51.878Z,1007.6
2017-10-05T20:26:57.951Z,1007.6
2017-10-05T20:32:03.361Z,1007.6
2017-10-05T20:37:07.765Z,1007.4
2017-10-05T20:42:13.173Z,1007.5
2017-10-05T20:47:17.574Z,1007.4
2017-10-05T20:52:22.987Z,1007.6
2017-10-05T20:57:28.393Z,1007.7
2017-10-05T21:02:33.458Z,1008
2017-10-05T21:07:38.533Z,1007.7
2017-10-05T21:12:44.282Z,1007.8
2017-10-05T21:17:49.035Z,1007.6
2017-10-05T21:22:54.106Z,1007.6
2017-10-05T21:27:59.177Z,1007.5
2017-10-05T21:33:03.913Z,1007.5
2017-10-05T21:38:08.985Z,1007.6
2017-10-05T21:43:14.053Z,1007.8
2017-10-05T21:48:19.460Z,1007.9
2017-10-05T21:53:23.853Z,1007.7
2017-10-05T21:58:29.923Z,1007.7
2017-10-05T22:03:34.324Z,1007.7
2017-10-05T22:08:39.390Z,1007.8
2017-10-05T22:13:45.130Z,1007.8
2017-10-05T22:18:50.875Z,1007.5
2017-10-05T22:23:55.933Z,1007.6
2017-10-05T22:28:59.996Z,1007.6
2017-10-05T22:34:04.396Z,1007.7
2017-10-05T22:39:09.462Z,1007.6
2017-10-05T22:44:14.527Z,1007.7
2017-10-05T22:49:19.590Z,1007.7
2017-10-05T22:54:24.658Z,1008
2017-10-05T22:59:29.049Z,1007.9
2017-10-05T23:04:34.448Z,1007.9
2017-10-05T23:09:39.850Z,1007.8
2017-10-05T23:14:44.913Z,1007.7
2017-10-05T23:19:50.313Z,1007.7
2017-10-05T23:24:55.718Z,1007.9
2017-10-05T23:30:01.459Z,1007.9
2017-10-05T23:35:06.187Z,1008.1
2017-10-05T23:40:11.590Z,1008
2017-10-05T23:45:16.653Z,1007.9
2017-10-05T23:50:21.721Z,1007.8
2017-10-05T23:55:26.793Z,1008
